الصفحة الرئيسية
METAR-TAF:

METAR-TAF

مطار :

San Antonio del Táchira, فنزويلا

دائرة عرض: 07-51N, خط طول: 072-27W, ارتفاع: 377 متر

مراقبة الطقس الحالي

تاريخ ووقت الإصدار 42 دقيقة قبل الساعة 14:03UTC
ريح 1 عقدة من الجنوب الغربي
درجة الحرارة 24°درجة مئوية
الرطوبة 74%
ضغط 1016 hPa

METAR: SVSA 011403Z AUTO 23001KT NCD 24/19 Q1016

زمن: 10:45 (14:45 UTC)

توقعات

تاريخ ووقت الإصدار 4ساعات و 45 دقيقة قبل الساعة 10:00UTC
التوقعات صالحة من01 الساعة 12 UTC إلى 02 الساعة 12 UTC
ريح عقدة من الشمال
الرؤية 10 كم أو أكثر
غيوم قليلة على ارتفاع 1300 قدم
أصبح
من 01 الساعة 16 UTC إلى 01 الساعة 22 UTC
ريح 6 عقدة من الجنوب الشرقي
غيوم متفرقة على ارتفاع 1300 قدم

TAF: SVSA 011000Z 0112/0212 00000KT 9999 FEW013 TX35/0119Z TN17/0107Z BECMG 0116/0122 14006KT SCT013

أرصاد الطقس والتوقعات من أكثر من 4000 مطار (تقارير الطقس للمطار METAR والتنبؤ بالطقس بالمطارTAF).

المحطات المتاحة هي النقط الصفراء والحمراء على الخريطة.

حرك المؤشر فوق النقطة لمعرفة اسم المحطة.

ثم انقر لمعرفة أرصاد وتوقعات الطقس.

لتغيير الخارطة: اضغط على الأزرار الخضراء مع رمز الصليب الأسود للتكبير. على الزر الأخضر مع شرطة للتصغير، أو على الأسهم الخضراء للخرائط المجاورة.


METAR-TAF: